sensor_id;sensor_type;location;lat;lon;timestamp;temperature;humidity
37460;DHT22;23318;50.966;5.284;2023-11-22T00:00:10;6.30;99.90
37460;DHT22;23318;50.966;5.284;2023-11-22T00:02:36;6.20;99.90
37460;DHT22;23318;50.966;5.284;2023-11-22T00:05:03;6.20;99.90
37460;DHT22;23318;50.966;5.284;2023-11-22T00:07:30;6.20;99.90
37460;DHT22;23318;50.966;5.284;2023-11-22T00:09:56;6.20;99.90
37460;DHT22;23318;50.966;5.284;2023-11-22T00:12:22;6.10;99.90
37460;DHT22;23318;50.966;5.284;2023-11-22T00:14:48;6.10;99.90
37460;DHT22;23318;50.966;5.284;2023-11-22T00:17:14;6.00;99.90
37460;DHT22;23318;50.966;5.284;2023-11-22T00:19:43;6.00;99.90
37460;DHT22;23318;50.966;5.284;2023-11-22T00:22:12;6.00;99.90
37460;DHT22;23318;50.966;5.284;2023-11-22T00:24:41;6.00;99.90
37460;DHT22;23318;50.966;5.284;2023-11-22T00:27:07;6.00;99.90
37460;DHT22;23318;50.966;5.284;2023-11-22T00:29:34;6.00;99.90
37460;DHT22;23318;50.966;5.284;2023-11-22T00:32:01;6.00;99.90
37460;DHT22;23318;50.966;5.284;2023-11-22T00:34:26;6.00;99.90
37460;DHT22;23318;50.966;5.284;2023-11-22T00:36:52;5.90;99.90
37460;DHT22;23318;50.966;5.284;2023-11-22T00:39:18;5.90;99.90
37460;DHT22;23318;50.966;5.284;2023-11-22T00:41:45;5.90;99.90
37460;DHT22;23318;50.966;5.284;2023-11-22T00:44:11;5.90;99.90
37460;DHT22;23318;50.966;5.284;2023-11-22T00:46:36;5.80;99.90
37460;DHT22;23318;50.966;5.284;2023-11-22T00:49:05;5.70;99.90
37460;DHT22;23318;50.966;5.284;2023-11-22T00:51:32;5.70;99.90
37460;DHT22;23318;50.966;5.284;2023-11-22T00:53:58;5.70;99.90
37460;DHT22;23318;50.966;5.284;2023-11-22T00:56:25;5.60;99.90
37460;DHT22;23318;50.966;5.284;2023-11-22T00:58:51;5.60;99.90
37460;DHT22;23318;50.966;5.284;2023-11-22T01:01:21;5.70;99.90
37460;DHT22;23318;50.966;5.284;2023-11-22T01:03:47;5.70;99.90
37460;DHT22;23318;50.966;5.284;2023-11-22T01:06:13;5.70;99.90
37460;DHT22;23318;50.966;5.284;2023-11-22T01:08:39;5.70;99.90
37460;DHT22;23318;50.966;5.284;2023-11-22T01:11:05;5.60;99.90
37460;DHT22;23318;50.966;5.284;2023-11-22T01:13:31;5.70;99.90
37460;DHT22;23318;50.966;5.284;2023-11-22T01:15:58;5.60;99.90
37460;DHT22;23318;50.966;5.284;2023-11-22T01:18:24;5.60;99.90
37460;DHT22;23318;50.966;5.284;2023-11-22T01:20:49;5.40;99.90
37460;DHT22;23318;50.966;5.284;2023-11-22T01:23:17;5.50;99.90
37460;DHT22;23318;50.966;5.284;2023-11-22T01:25:42;5.50;99.90
37460;DHT22;23318;50.966;5.284;2023-11-22T01:28:08;5.50;99.90
37460;DHT22;23318;50.966;5.284;2023-11-22T01:30:36;5.50;99.90
37460;DHT22;23318;50.966;5.284;2023-11-22T01:33:03;5.60;99.90
37460;DHT22;23318;50.966;5.284;2023-11-22T01:35:29;5.70;99.90
37460;DHT22;23318;50.966;5.284;2023-11-22T01:37:54;5.70;99.90
37460;DHT22;23318;50.966;5.284;2023-11-22T01:40:21;5.80;99.90
37460;DHT22;23318;50.966;5.284;2023-11-22T01:42:48;5.80;99.90
37460;DHT22;23318;50.966;5.284;2023-11-22T01:45:13;5.80;99.90
37460;DHT22;23318;50.966;5.284;2023-11-22T01:47:39;5.90;99.90
37460;DHT22;23318;50.966;5.284;2023-11-22T01:50:06;5.90;99.90
37460;DHT22;23318;50.966;5.284;2023-11-22T01:52:34;5.90;99.90
37460;DHT22;23318;50.966;5.284;2023-11-22T01:55:03;5.90;99.90
37460;DHT22;23318;50.966;5.284;2023-11-22T01:57:31;5.90;99.90
37460;DHT22;23318;50.966;5.284;2023-11-22T02:00:00;5.90;99.90
37460;DHT22;23318;50.966;5.284;2023-11-22T02:02:26;5.90;99.90
37460;DHT22;23318;50.966;5.284;2023-11-22T02:04:52;5.90;99.90
37460;DHT22;23318;50.966;5.284;2023-11-22T02:07:18;6.00;99.90
37460;DHT22;23318;50.966;5.284;2023-11-22T02:09:43;6.10;99.90
37460;DHT22;23318;50.966;5.284;2023-11-22T02:12:11;6.10;99.90
37460;DHT22;23318;50.966;5.284;2023-11-22T02:14:37;6.00;99.90
37460;DHT22;23318;50.966;5.284;2023-11-22T02:17:04;6.00;99.90
37460;DHT22;23318;50.966;5.284;2023-11-22T02:19:29;6.00;99.90
37460;DHT22;23318;50.966;5.284;2023-11-22T02:21:58;6.20;99.90
37460;DHT22;23318;50.966;5.284;2023-11-22T02:24:24;6.20;99.90
37460;DHT22;23318;50.966;5.284;2023-11-22T02:26:50;6.30;99.90
37460;DHT22;23318;50.966;5.284;2023-11-22T02:29:17;6.20;99.90
37460;DHT22;23318;50.966;5.284;2023-11-22T02:31:43;6.30;99.90
37460;DHT22;23318;50.966;5.284;2023-11-22T02:34:09;6.20;99.90
37460;DHT22;23318;50.966;5.284;2023-11-22T02:36:35;6.10;99.90
37460;DHT22;23318;50.966;5.284;2023-11-22T02:39:01;6.10;99.90
37460;DHT22;23318;50.966;5.284;2023-11-22T02:41:27;6.20;99.90
37460;DHT22;23318;50.966;5.284;2023-11-22T02:43:55;6.20;99.90
37460;DHT22;23318;50.966;5.284;2023-11-22T02:46:21;6.20;99.90
37460;DHT22;23318;50.966;5.284;2023-11-22T02:48:47;6.10;99.90
37460;DHT22;23318;50.966;5.284;2023-11-22T02:51:12;5.90;99.90
37460;DHT22;23318;50.966;5.284;2023-11-22T02:53:39;5.80;99.90
37460;DHT22;23318;50.966;5.284;2023-11-22T02:56:09;5.90;99.90
37460;DHT22;23318;50.966;5.284;2023-11-22T02:58:35;5.80;99.90
37460;DHT22;23318;50.966;5.284;2023-11-22T03:01:00;5.90;99.90
37460;DHT22;23318;50.966;5.284;2023-11-22T03:03:26;5.90;99.90
37460;DHT22;23318;50.966;5.284;2023-11-22T03:05:52;6.00;99.90
37460;DHT22;23318;50.966;5.284;2023-11-22T03:08:18;5.90;99.90
37460;DHT22;23318;50.966;5.284;2023-11-22T03:10:44;5.90;99.90
37460;DHT22;23318;50.966;5.284;2023-11-22T03:13:09;5.90;99.90
37460;DHT22;23318;50.966;5.284;2023-11-22T03:15:35;5.90;99.90
37460;DHT22;23318;50.966;5.284;2023-11-22T03:18:01;6.00;99.90
37460;DHT22;23318;50.966;5.284;2023-11-22T03:20:28;6.00;99.90
37460;DHT22;23318;50.966;5.284;2023-11-22T03:22:54;6.10;99.90
37460;DHT22;23318;50.966;5.284;2023-11-22T03:25:20;5.90;99.90
37460;DHT22;23318;50.966;5.284;2023-11-22T03:27:46;5.90;99.90
37460;DHT22;23318;50.966;5.284;2023-11-22T03:30:12;5.80;99.90
37460;DHT22;23318;50.966;5.284;2023-11-22T03:32:40;5.90;99.90
37460;DHT22;23318;50.966;5.284;2023-11-22T03:35:07;6.00;99.90
37460;DHT22;23318;50.966;5.284;2023-11-22T03:37:33;6.20;99.90
37460;DHT22;23318;50.966;5.284;2023-11-22T03:40:00;6.20;99.90
37460;DHT22;23318;50.966;5.284;2023-11-22T03:42:26;6.10;99.90
37460;DHT22;23318;50.966;5.284;2023-11-22T03:44:56;6.00;99.90
37460;DHT22;23318;50.966;5.284;2023-11-22T03:47:25;6.10;99.90
37460;DHT22;23318;50.966;5.284;2023-11-22T03:49:51;6.10;99.90
37460;DHT22;23318;50.966;5.284;2023-11-22T03:52:16;6.10;99.90
37460;DHT22;23318;50.966;5.284;2023-11-22T03:54:42;6.20;99.90
37460;DHT22;23318;50.966;5.284;2023-11-22T03:57:08;6.10;99.90
37460;DHT22;23318;50.966;5.284;2023-11-22T03:59:35;6.30;99.90
37460;DHT22;23318;50.966;5.284;2023-11-22T04:02:00;6.40;99.90
37460;DHT22;23318;50.966;5.284;2023-11-22T04:04:26;6.40;99.90
37460;DHT22;23318;50.966;5.284;2023-11-22T04:06:52;6.40;99.90
37460;DHT22;23318;50.966;5.284;2023-11-22T04:09:18;6.30;99.90
37460;DHT22;23318;50.966;5.284;2023-11-22T04:11:45;6.30;99.90
37460;DHT22;23318;50.966;5.284;2023-11-22T04:14:12;6.40;99.90
37460;DHT22;23318;50.966;5.284;2023-11-22T04:16:38;6.40;99.90
37460;DHT22;23318;50.966;5.284;2023-11-22T04:19:04;6.60;99.90
37460;DHT22;23318;50.966;5.284;2023-11-22T04:21:30;6.40;99.90
37460;DHT22;23318;50.966;5.284;2023-11-22T04:23:55;6.30;99.90
37460;DHT22;23318;50.966;5.284;2023-11-22T04:26:21;6.10;99.90
37460;DHT22;23318;50.966;5.284;2023-11-22T04:28:47;6.00;99.90
37460;DHT22;23318;50.966;5.284;2023-11-22T04:31:12;6.00;99.90
37460;DHT22;23318;50.966;5.284;2023-11-22T04:33:38;6.00;99.90
37460;DHT22;23318;50.966;5.284;2023-11-22T04:36:05;5.90;99.90
37460;DHT22;23318;50.966;5.284;2023-11-22T04:38:30;5.90;99.90
37460;DHT22;23318;50.966;5.284;2023-11-22T04:40:59;6.00;99.90
37460;DHT22;23318;50.966;5.284;2023-11-22T04:43:25;6.00;99.90
37460;DHT22;23318;50.966;5.284;2023-11-22T04:45:51;6.00;99.90
37460;DHT22;23318;50.966;5.284;2023-11-22T04:48:16;6.00;99.90
37460;DHT22;23318;50.966;5.284;2023-11-22T04:50:44;6.10;99.90
37460;DHT22;23318;50.966;5.284;2023-11-22T04:53:10;6.20;99.90
37460;DHT22;23318;50.966;5.284;2023-11-22T04:55:36;6.30;99.90
37460;DHT22;23318;50.966;5.284;2023-11-22T04:58:01;6.30;99.90
37460;DHT22;23318;50.966;5.284;2023-11-22T05:00:28;6.40;99.90
37460;DHT22;23318;50.966;5.284;2023-11-22T05:02:54;6.40;99.90
37460;DHT22;23318;50.966;5.284;2023-11-22T05:05:20;6.30;99.90
37460;DHT22;23318;50.966;5.284;2023-11-22T05:07:46;6.40;99.90
37460;DHT22;23318;50.966;5.284;2023-11-22T05:10:12;6.40;99.90
37460;DHT22;23318;50.966;5.284;2023-11-22T05:12:38;6.60;99.90
37460;DHT22;23318;50.966;5.284;2023-11-22T05:15:04;6.60;99.90
37460;DHT22;23318;50.966;5.284;2023-11-22T05:17:30;6.60;99.90
37460;DHT22;23318;50.966;5.284;2023-11-22T05:19:56;6.50;99.90
37460;DHT22;23318;50.966;5.284;2023-11-22T05:22:21;6.60;99.90
37460;DHT22;23318;50.966;5.284;2023-11-22T05:24:48;6.50;99.90
37460;DHT22;23318;50.966;5.284;2023-11-22T05:27:14;6.60;99.90
37460;DHT22;23318;50.966;5.284;2023-11-22T05:29:40;6.70;99.90
37460;DHT22;23318;50.966;5.284;2023-11-22T05:32:06;6.80;99.90
37460;DHT22;23318;50.966;5.284;2023-11-22T05:34:32;6.70;99.90
37460;DHT22;23318;50.966;5.284;2023-11-22T05:36:58;6.50;99.90
37460;DHT22;23318;50.966;5.284;2023-11-22T05:39:24;6.30;99.90
37460;DHT22;23318;50.966;5.284;2023-11-22T05:41:53;6.40;99.90
37460;DHT22;23318;50.966;5.284;2023-11-22T05:44:19;6.30;99.90
37460;DHT22;23318;50.966;5.284;2023-11-22T05:46:45;6.40;99.90
37460;DHT22;23318;50.966;5.284;2023-11-22T05:49:10;6.40;99.90
37460;DHT22;23318;50.966;5.284;2023-11-22T05:51:36;6.20;99.90
37460;DHT22;23318;50.966;5.284;2023-11-22T05:54:03;6.20;99.90
37460;DHT22;23318;50.966;5.284;2023-11-22T05:56:29;6.10;99.90
37460;DHT22;23318;50.966;5.284;2023-11-22T05:58:55;6.00;99.90
37460;DHT22;23318;50.966;5.284;2023-11-22T06:01:22;5.90;99.90
37460;DHT22;23318;50.966;5.284;2023-11-22T06:03:48;5.90;99.90
37460;DHT22;23318;50.966;5.284;2023-11-22T06:06:14;6.10;99.90
37460;DHT22;23318;50.966;5.284;2023-11-22T06:08:40;6.20;99.90
37460;DHT22;23318;50.966;5.284;2023-11-22T06:11:05;6.20;99.90
37460;DHT22;23318;50.966;5.284;2023-11-22T06:13:31;6.30;99.90
37460;DHT22;23318;50.966;5.284;2023-11-22T06:15:57;6.30;99.90
37460;DHT22;23318;50.966;5.284;2023-11-22T06:18:23;6.20;99.90
37460;DHT22;23318;50.966;5.284;2023-11-22T06:20:54;6.30;99.90
37460;DHT22;23318;50.966;5.284;2023-11-22T06:23:20;6.30;99.90
37460;DHT22;23318;50.966;5.284;2023-11-22T06:25:45;6.20;99.90
37460;DHT22;23318;50.966;5.284;2023-11-22T06:28:11;6.10;99.90
37460;DHT22;23318;50.966;5.284;2023-11-22T06:30:37;6.10;99.90
37460;DHT22;23318;50.966;5.284;2023-11-22T06:33:03;6.20;99.90
37460;DHT22;23318;50.966;5.284;2023-11-22T06:35:29;6.10;99.90
37460;DHT22;23318;50.966;5.284;2023-11-22T06:37:54;6.20;99.90
37460;DHT22;23318;50.966;5.284;2023-11-22T06:40:20;6.10;99.90
37460;DHT22;23318;50.966;5.284;2023-11-22T06:42:48;6.10;99.90
37460;DHT22;23318;50.966;5.284;2023-11-22T06:45:15;6.20;99.90
37460;DHT22;23318;50.966;5.284;2023-11-22T06:47:45;6.20;99.90
37460;DHT22;23318;50.966;5.284;2023-11-22T06:50:11;6.30;99.90
37460;DHT22;23318;50.966;5.284;2023-11-22T06:52:38;6.30;99.90
37460;DHT22;23318;50.966;5.284;2023-11-22T06:55:04;6.40;99.90
37460;DHT22;23318;50.966;5.284;2023-11-22T06:57:30;6.40;99.90
37460;DHT22;23318;50.966;5.284;2023-11-22T06:59:56;6.40;99.90
37460;DHT22;23318;50.966;5.284;2023-11-22T07:02:22;6.50;99.90
37460;DHT22;23318;50.966;5.284;2023-11-22T07:04:48;6.50;99.90
37460;DHT22;23318;50.966;5.284;2023-11-22T07:07:14;6.50;99.90
37460;DHT22;23318;50.966;5.284;2023-11-22T07:09:43;6.50;99.90
37460;DHT22;23318;50.966;5.284;2023-11-22T07:12:09;6.40;99.90
37460;DHT22;23318;50.966;5.284;2023-11-22T07:14:36;6.50;99.90
37460;DHT22;23318;50.966;5.284;2023-11-22T07:17:02;6.40;99.90
37460;DHT22;23318;50.966;5.284;2023-11-22T07:19:28;6.40;99.90
37460;DHT22;23318;50.966;5.284;2023-11-22T07:21:54;6.50;99.90
37460;DHT22;23318;50.966;5.284;2023-11-22T07:24:20;6.50;99.90
37460;DHT22;23318;50.966;5.284;2023-11-22T07:26:46;6.60;99.90
37460;DHT22;23318;50.966;5.284;2023-11-22T07:29:12;6.70;99.90
37460;DHT22;23318;50.966;5.284;2023-11-22T07:31:39;6.70;99.90
37460;DHT22;23318;50.966;5.284;2023-11-22T07:34:05;6.80;99.90
37460;DHT22;23318;50.966;5.284;2023-11-22T07:36:31;6.80;99.90
37460;DHT22;23318;50.966;5.284;2023-11-22T07:38:57;6.90;99.90
37460;DHT22;23318;50.966;5.284;2023-11-22T07:41:24;6.90;99.90
37460;DHT22;23318;50.966;5.284;2023-11-22T07:43:50;6.90;99.90
37460;DHT22;23318;50.966;5.284;2023-11-22T07:46:16;6.90;99.90
37460;DHT22;23318;50.966;5.284;2023-11-22T07:48:43;7.00;99.90
37460;DHT22;23318;50.966;5.284;2023-11-22T07:51:09;7.00;99.90
37460;DHT22;23318;50.966;5.284;2023-11-22T07:53:34;6.80;99.90
37460;DHT22;23318;50.966;5.284;2023-11-22T07:56:03;6.80;99.90
37460;DHT22;23318;50.966;5.284;2023-11-22T07:58:34;7.00;99.90
37460;DHT22;23318;50.966;5.284;2023-11-22T08:00:59;7.10;99.90
37460;DHT22;23318;50.966;5.284;2023-11-22T08:03:26;7.10;99.90
37460;DHT22;23318;50.966;5.284;2023-11-22T08:05:52;7.10;99.90
37460;DHT22;23318;50.966;5.284;2023-11-22T08:08:21;7.10;99.90
37460;DHT22;23318;50.966;5.284;2023-11-22T08:10:47;7.20;99.90
37460;DHT22;23318;50.966;5.284;2023-11-22T08:13:14;7.10;99.90
37460;DHT22;23318;50.966;5.284;2023-11-22T08:15:41;7.30;99.90
37460;DHT22;23318;50.966;5.284;2023-11-22T08:18:07;7.10;99.90
37460;DHT22;23318;50.966;5.284;2023-11-22T08:20:33;7.00;99.90
37460;DHT22;23318;50.966;5.284;2023-11-22T08:22:58;7.20;99.90
37460;DHT22;23318;50.966;5.284;2023-11-22T08:25:26;7.30;99.90
37460;DHT22;23318;50.966;5.284;2023-11-22T08:27:51;7.20;99.90
37460;DHT22;23318;50.966;5.284;2023-11-22T08:30:17;7.10;99.90
37460;DHT22;23318;50.966;5.284;2023-11-22T08:32:44;7.10;99.90
37460;DHT22;23318;50.966;5.284;2023-11-22T08:35:13;7.10;99.90
37460;DHT22;23318;50.966;5.284;2023-11-22T08:37:41;7.20;99.90
37460;DHT22;23318;50.966;5.284;2023-11-22T08:40:08;7.20;99.90
37460;DHT22;23318;50.966;5.284;2023-11-22T08:42:37;7.30;99.90
37460;DHT22;23318;50.966;5.284;2023-11-22T08:45:03;7.30;99.90
37460;DHT22;23318;50.966;5.284;2023-11-22T08:47:29;7.50;99.90
37460;DHT22;23318;50.966;5.284;2023-11-22T08:49:56;7.60;99.90
37460;DHT22;23318;50.966;5.284;2023-11-22T08:52:23;7.60;99.90
37460;DHT22;23318;50.966;5.284;2023-11-22T08:54:50;7.80;99.90
37460;DHT22;23318;50.966;5.284;2023-11-22T08:57:17;7.90;99.90
37460;DHT22;23318;50.966;5.284;2023-11-22T08:59:43;7.90;99.90
37460;DHT22;23318;50.966;5.284;2023-11-22T09:02:09;8.10;99.90
37460;DHT22;23318;50.966;5.284;2023-11-22T09:04:38;8.20;99.90
37460;DHT22;23318;50.966;5.284;2023-11-22T09:07:04;8.10;99.90
37460;DHT22;23318;50.966;5.284;2023-11-22T09:09:31;8.10;99.90
37460;DHT22;23318;50.966;5.284;2023-11-22T09:11:58;8.20;99.90
37460;DHT22;23318;50.966;5.284;2023-11-22T09:14:24;8.10;99.90
37460;DHT22;23318;50.966;5.284;2023-11-22T09:16:50;8.10;99.90
37460;DHT22;23318;50.966;5.284;2023-11-22T09:19:22;8.10;99.90
37460;DHT22;23318;50.966;5.284;2023-11-22T09:21:49;7.70;99.90
37460;DHT22;23318;50.966;5.284;2023-11-22T09:24:14;6.80;99.90
37460;DHT22;23318;50.966;5.284;2023-11-22T09:26:40;6.40;99.90
37460;DHT22;23318;50.966;5.284;2023-11-22T09:29:07;6.50;99.90
37460;DHT22;23318;50.966;5.284;2023-11-22T09:31:32;7.20;99.90
37460;DHT22;23318;50.966;5.284;2023-11-22T09:33:58;7.90;99.90
37460;DHT22;23318;50.966;5.284;2023-11-22T09:36:24;7.70;99.90
37460;DHT22;23318;50.966;5.284;2023-11-22T09:38:53;7.40;99.90
37460;DHT22;23318;50.966;5.284;2023-11-22T09:41:19;7.70;99.90
37460;DHT22;23318;50.966;5.284;2023-11-22T09:43:45;7.60;99.90
37460;DHT22;23318;50.966;5.284;2023-11-22T09:46:15;8.00;99.90
37460;DHT22;23318;50.966;5.284;2023-11-22T09:48:46;8.40;99.90
37460;DHT22;23318;50.966;5.284;2023-11-22T09:51:23;8.00;99.90
37460;DHT22;23318;50.966;5.284;2023-11-22T09:53:56;7.70;99.90
37460;DHT22;23318;50.966;5.284;2023-11-22T09:56:24;7.90;99.90
37460;DHT22;23318;50.966;5.284;2023-11-22T09:58:55;8.00;99.90
37460;DHT22;23318;50.966;5.284;2023-11-22T10:01:24;8.00;99.90
37460;DHT22;23318;50.966;5.284;2023-11-22T10:03:50;8.00;99.90
37460;DHT22;23318;50.966;5.284;2023-11-22T10:06:17;8.10;99.90
37460;DHT22;23318;50.966;5.284;2023-11-22T10:08:43;8.20;99.90
37460;DHT22;23318;50.966;5.284;2023-11-22T10:11:16;8.30;99.90
37460;DHT22;23318;50.966;5.284;2023-11-22T10:13:50;8.20;99.90
37460;DHT22;23318;50.966;5.284;2023-11-22T10:16:17;8.10;99.90
37460;DHT22;23318;50.966;5.284;2023-11-22T10:18:45;8.10;99.90
37460;DHT22;23318;50.966;5.284;2023-11-22T10:21:26;7.40;99.90
37460;DHT22;23318;50.966;5.284;2023-11-22T10:24:10;6.60;99.90
37460;DHT22;23318;50.966;5.284;2023-11-22T10:26:36;6.80;99.90
37460;DHT22;23318;50.966;5.284;2023-11-22T10:29:01;7.10;99.90
37460;DHT22;23318;50.966;5.284;2023-11-22T10:31:28;6.70;99.90
37460;DHT22;23318;50.966;5.284;2023-11-22T10:33:54;6.60;99.90
37460;DHT22;23318;50.966;5.284;2023-11-22T10:36:23;6.70;99.90
37460;DHT22;23318;50.966;5.284;2023-11-22T10:38:49;6.60;99.90
37460;DHT22;23318;50.966;5.284;2023-11-22T10:41:16;6.90;99.90
37460;DHT22;23318;50.966;5.284;2023-11-22T10:43:43;6.90;99.90
37460;DHT22;23318;50.966;5.284;2023-11-22T10:46:12;7.20;99.90
37460;DHT22;23318;50.966;5.284;2023-11-22T10:48:38;7.60;99.90
37460;DHT22;23318;50.966;5.284;2023-11-22T10:51:05;7.50;99.90
37460;DHT22;23318;50.966;5.284;2023-11-22T10:53:35;7.30;99.90
37460;DHT22;23318;50.966;5.284;2023-11-22T10:56:14;6.80;99.90
37460;DHT22;23318;50.966;5.284;2023-11-22T10:58:52;6.60;99.90
37460;DHT22;23318;50.966;5.284;2023-11-22T11:01:22;7.60;99.90
37460;DHT22;23318;50.966;5.284;2023-11-22T11:04:09;8.40;99.90
37460;DHT22;23318;50.966;5.284;2023-11-22T11:06:36;8.30;99.90
37460;DHT22;23318;50.966;5.284;2023-11-22T11:09:03;7.90;99.90
37460;DHT22;23318;50.966;5.284;2023-11-22T11:11:37;7.60;99.90
37460;DHT22;23318;50.966;5.284;2023-11-22T11:14:05;8.20;99.90
37460;DHT22;23318;50.966;5.284;2023-11-22T11:16:34;7.70;99.90
37460;DHT22;23318;50.966;5.284;2023-11-22T11:19:03;8.40;99.90
37460;DHT22;23318;50.966;5.284;2023-11-22T11:21:30;8.30;99.90
37460;DHT22;23318;50.966;5.284;2023-11-22T11:23:58;8.30;99.90
37460;DHT22;23318;50.966;5.284;2023-11-22T11:26:28;8.10;99.90
37460;DHT22;23318;50.966;5.284;2023-11-22T11:28:54;8.70;99.90
37460;DHT22;23318;50.966;5.284;2023-11-22T11:31:23;8.40;99.90
37460;DHT22;23318;50.966;5.284;2023-11-22T11:36:31;9.00;99.90
37460;DHT22;23318;50.966;5.284;2023-11-22T11:39:05;9.10;99.90
37460;DHT22;23318;50.966;5.284;2023-11-22T11:41:34;8.80;99.90
37460;DHT22;23318;50.966;5.284;2023-11-22T11:44:03;8.10;99.90
37460;DHT22;23318;50.966;5.284;2023-11-22T11:46:30;8.00;99.90
37460;DHT22;23318;50.966;5.284;2023-11-22T11:48:56;8.00;99.90
37460;DHT22;23318;50.966;5.284;2023-11-22T11:51:27;7.60;99.90
37460;DHT22;23318;50.966;5.284;2023-11-22T11:53:54;8.50;99.90
37460;DHT22;23318;50.966;5.284;2023-11-22T11:56:19;9.00;99.90
37460;DHT22;23318;50.966;5.284;2023-11-22T11:58:46;10.00;99.90
37460;DHT22;23318;50.966;5.284;2023-11-22T12:01:13;10.60;99.90
37460;DHT22;23318;50.966;5.284;2023-11-22T12:03:40;9.60;99.90
37460;DHT22;23318;50.966;5.284;2023-11-22T12:06:07;9.80;99.90
37460;DHT22;23318;50.966;5.284;2023-11-22T12:08:33;9.80;99.90
37460;DHT22;23318;50.966;5.284;2023-11-22T12:11:05;9.80;99.90
37460;DHT22;23318;50.966;5.284;2023-11-22T12:13:34;9.80;99.90
37460;DHT22;23318;50.966;5.284;2023-11-22T12:16:04;10.30;99.90
37460;DHT22;23318;50.966;5.284;2023-11-22T12:18:49;10.60;99.90
37460;DHT22;23318;50.966;5.284;2023-11-22T12:21:15;9.80;99.90
37460;DHT22;23318;50.966;5.284;2023-11-22T12:23:42;9.50;99.90
37460;DHT22;23318;50.966;5.284;2023-11-22T12:26:16;9.00;99.90
37460;DHT22;23318;50.966;5.284;2023-11-22T12:28:47;8.80;99.90
37460;DHT22;23318;50.966;5.284;2023-11-22T12:31:14;8.30;99.90
37460;DHT22;23318;50.966;5.284;2023-11-22T12:33:43;8.30;99.90
37460;DHT22;23318;50.966;5.284;2023-11-22T12:36:10;9.10;99.90
37460;DHT22;23318;50.966;5.284;2023-11-22T12:38:41;9.30;99.90
37460;DHT22;23318;50.966;5.284;2023-11-22T12:41:06;9.60;99.90
37460;DHT22;23318;50.966;5.284;2023-11-22T12:43:35;10.30;99.90
37460;DHT22;23318;50.966;5.284;2023-11-22T12:46:05;10.10;99.90
37460;DHT22;23318;50.966;5.284;2023-11-22T12:48:38;9.40;99.90
37460;DHT22;23318;50.966;5.284;2023-11-22T12:51:15;8.70;99.90
37460;DHT22;23318;50.966;5.284;2023-11-22T12:53:41;8.00;99.90
37460;DHT22;23318;50.966;5.284;2023-11-22T12:56:07;7.80;99.90
37460;DHT22;23318;50.966;5.284;2023-11-22T12:58:34;8.30;99.90
37460;DHT22;23318;50.966;5.284;2023-11-22T13:00:59;8.60;99.90
37460;DHT22;23318;50.966;5.284;2023-11-22T13:03:26;9.10;99.90
37460;DHT22;23318;50.966;5.284;2023-11-22T13:05:53;8.70;99.90
37460;DHT22;23318;50.966;5.284;2023-11-22T13:08:19;8.30;99.90
37460;DHT22;23318;50.966;5.284;2023-11-22T13:10:51;8.20;99.90
37460;DHT22;23318;50.966;5.284;2023-11-22T13:13:24;8.30;99.90
37460;DHT22;23318;50.966;5.284;2023-11-22T13:15:51;8.40;99.90
37460;DHT22;23318;50.966;5.284;2023-11-22T13:18:20;9.30;99.90
37460;DHT22;23318;50.966;5.284;2023-11-22T13:20:46;10.30;99.90
37460;DHT22;23318;50.966;5.284;2023-11-22T13:23:12;11.00;99.90
37460;DHT22;23318;50.966;5.284;2023-11-22T13:25:39;10.80;99.90
37460;DHT22;23318;50.966;5.284;2023-11-22T13:28:06;11.00;99.90
37460;DHT22;23318;50.966;5.284;2023-11-22T13:30:32;12.00;99.90
37460;DHT22;23318;50.966;5.284;2023-11-22T13:32:58;12.30;99.90
37460;DHT22;23318;50.966;5.284;2023-11-22T13:35:24;11.70;99.90
37460;DHT22;23318;50.966;5.284;2023-11-22T13:37:52;10.30;99.90
37460;DHT22;23318;50.966;5.284;2023-11-22T13:40:19;9.70;99.90
37460;DHT22;23318;50.966;5.284;2023-11-22T13:42:50;9.20;99.90
37460;DHT22;23318;50.966;5.284;2023-11-22T13:45:18;9.40;99.90
37460;DHT22;23318;50.966;5.284;2023-11-22T13:47:45;9.60;99.90
37460;DHT22;23318;50.966;5.284;2023-11-22T13:50:13;9.50;99.90
37460;DHT22;23318;50.966;5.284;2023-11-22T13:52:40;10.20;99.90
37460;DHT22;23318;50.966;5.284;2023-11-22T13:55:06;10.10;99.90
37460;DHT22;23318;50.966;5.284;2023-11-22T13:57:38;10.00;99.90
37460;DHT22;23318;50.966;5.284;2023-11-22T14:00:05;9.20;99.90
37460;DHT22;23318;50.966;5.284;2023-11-22T14:02:35;8.30;99.90
37460;DHT22;23318;50.966;5.284;2023-11-22T14:05:02;8.30;99.90
37460;DHT22;23318;50.966;5.284;2023-11-22T14:07:28;8.40;99.90
37460;DHT22;23318;50.966;5.284;2023-11-22T14:09:54;8.20;99.90
37460;DHT22;23318;50.966;5.284;2023-11-22T14:12:20;8.20;99.90
37460;DHT22;23318;50.966;5.284;2023-11-22T14:14:46;7.90;99.90
37460;DHT22;23318;50.966;5.284;2023-11-22T14:17:11;7.80;99.90
37460;DHT22;23318;50.966;5.284;2023-11-22T14:19:39;8.10;99.90
37460;DHT22;23318;50.966;5.284;2023-11-22T14:22:05;8.10;99.90
37460;DHT22;23318;50.966;5.284;2023-11-22T14:24:31;7.90;99.90
37460;DHT22;23318;50.966;5.284;2023-11-22T14:27:02;8.10;99.90
37460;DHT22;23318;50.966;5.284;2023-11-22T14:29:28;7.70;99.90
37460;DHT22;23318;50.966;5.284;2023-11-22T14:31:54;7.90;99.90
37460;DHT22;23318;50.966;5.284;2023-11-22T14:34:19;7.70;99.90
37460;DHT22;23318;50.966;5.284;2023-11-22T14:36:45;7.50;99.90
37460;DHT22;23318;50.966;5.284;2023-11-22T14:39:11;7.40;99.90
37460;DHT22;23318;50.966;5.284;2023-11-22T14:41:40;7.20;99.90
37460;DHT22;23318;50.966;5.284;2023-11-22T14:44:05;6.90;99.90
37460;DHT22;23318;50.966;5.284;2023-11-22T14:46:31;7.10;99.90
37460;DHT22;23318;50.966;5.284;2023-11-22T14:48:57;7.10;99.90
37460;DHT22;23318;50.966;5.284;2023-11-22T14:51:23;7.10;99.90
37460;DHT22;23318;50.966;5.284;2023-11-22T14:53:49;7.10;99.90
37460;DHT22;23318;50.966;5.284;2023-11-22T14:56:15;7.00;99.90
37460;DHT22;23318;50.966;5.284;2023-11-22T14:58:41;6.80;99.90
37460;DHT22;23318;50.966;5.284;2023-11-22T15:01:07;7.10;99.90
37460;DHT22;23318;50.966;5.284;2023-11-22T15:03:34;7.00;99.90
37460;DHT22;23318;50.966;5.284;2023-11-22T15:06:01;6.90;99.90
37460;DHT22;23318;50.966;5.284;2023-11-22T15:08:27;6.80;99.90
37460;DHT22;23318;50.966;5.284;2023-11-22T15:10:56;6.80;99.90
37460;DHT22;23318;50.966;5.284;2023-11-22T15:13:22;6.70;99.90
37460;DHT22;23318;50.966;5.284;2023-11-22T15:15:48;6.90;99.90
37460;DHT22;23318;50.966;5.284;2023-11-22T15:18:13;6.90;99.90
37460;DHT22;23318;50.966;5.284;2023-11-22T15:20:39;7.30;99.90
37460;DHT22;23318;50.966;5.284;2023-11-22T15:23:05;7.10;99.90
37460;DHT22;23318;50.966;5.284;2023-11-22T15:25:33;7.10;99.90
37460;DHT22;23318;50.966;5.284;2023-11-22T15:27:59;6.90;99.90
37460;DHT22;23318;50.966;5.284;2023-11-22T15:30:25;6.80;99.90
37460;DHT22;23318;50.966;5.284;2023-11-22T15:32:51;6.90;99.90
37460;DHT22;23318;50.966;5.284;2023-11-22T15:35:18;6.90;99.90
37460;DHT22;23318;50.966;5.284;2023-11-22T15:37:44;6.90;99.90
37460;DHT22;23318;50.966;5.284;2023-11-22T15:40:10;6.80;99.90
37460;DHT22;23318;50.966;5.284;2023-11-22T15:42:38;7.20;99.90
37460;DHT22;23318;50.966;5.284;2023-11-22T15:45:05;7.50;99.90